Time;durP1;ratioP1;P1;durP2;ratioP2;P2;SDS_P1;SDS_P2;PMS_P1;PMS_P2;Temp;Humidity;BMP_temperature;BMP_pressure;BME280_temperature;BME280_humidity;BME280_pressure;Samples;Min_cycle;Max_cycle;Signal;HPM_P1;HPM_P2
2022/06/10 00:00:46;;;;;;;90.30;83.80;;;;;;;17.52;100.00;101807.38;1969601;72;24579;-72
2022/06/10 00:03:18;;;;;;;100.27;93.43;;;;;;;17.48;100.00;101808.30;1945667;73;26634;-72
2022/06/10 00:05:50;;;;;;;93.90;87.47;;;;;;;17.55;100.00;101808.16;1966493;72;24216;-72
2022/06/10 00:11:28;;;;;;;93.67;87.07;;;;;;;17.44;100.00;101792.64;2045193;69;31047;-73
2022/06/10 00:14:00;;;;;;;93.20;86.70;;;;;;;17.36;100.00;101798.97;1944543;73;26175;-73
2022/06/10 00:16:33;;;;;;;92.70;86.33;;;;;;;17.35;100.00;101802.07;1937748;73;24160;-73
2022/06/10 00:19:04;;;;;;;90.10;83.70;;;;;;;17.32;100.00;101807.74;1963823;72;24638;-73
2022/06/10 00:21:34;;;;;;;85.10;78.70;;;;;;;17.29;100.00;101815.36;1932546;73;24749;-73
2022/06/10 00:24:04;;;;;;;85.70;79.30;;;;;;;17.40;100.00;101813.22;1939216;73;26381;-73
2022/06/10 00:26:35;;;;;;;85.37;79.07;;;;;;;17.24;100.00;101812.66;1929332;73;24631;-72
2022/06/10 00:29:06;;;;;;;86.07;79.33;;;;;;;17.30;100.00;101814.22;2015578;70;24584;-73
2022/06/10 00:31:36;;;;;;;80.20;73.73;;;;;;;17.27;100.00;101817.09;2015249;70;24149;-72
2022/06/10 00:34:06;;;;;;;89.23;82.70;;;;;;;17.31;100.00;101808.88;2024874;70;26281;-73
2022/06/10 00:36:37;;;;;;;90.70;84.40;;;;;;;17.32;100.00;101817.58;2009446;70;26324;-73
2022/06/10 00:39:07;;;;;;;87.03;80.57;;;;;;;17.30;100.00;101819.84;2021150;70;24595;-73
2022/06/10 00:41:40;;;;;;;89.83;83.53;;;;;;;17.25;100.00;101826.94;2020098;70;24115;-73
2022/06/10 00:44:37;;;;;;;85.63;79.33;;;;;;;17.26;100.00;101832.83;2022145;70;24593;-73
2022/06/10 00:47:15;;;;;;;94.97;88.37;;;;;;;17.21;100.00;101828.12;2013256;70;24243;-73
2022/06/10 00:49:49;;;;;;;90.30;83.83;;;;;;;17.21;100.00;101834.31;2015311;70;24178;-73
2022/06/10 00:55:29;;;;;;;89.00;82.30;;;;;;;17.23;100.00;101819.41;2043407;69;33145;-73
2022/06/10 00:58:03;;;;;;;89.73;83.03;;;;;;;17.19;100.00;101834.64;2014494;70;24129;-73
2022/06/10 01:00:37;;;;;;;88.73;82.17;;;;;;;17.16;100.00;101828.77;1937629;74;24646;-72
2022/06/10 01:03:07;;;;;;;84.17;77.87;;;;;;;17.19;100.00;101830.42;1934492;73;24639;-73
2022/06/10 01:05:38;;;;;;;93.43;86.63;;;;;;;17.13;100.00;101833.04;1967125;72;24217;-73
2022/06/10 01:11:27;;;;;;;88.33;82.03;;;;;;;17.29;100.00;101818.16;2060871;69;30581;-73
2022/06/10 01:14:01;;;;;;;86.83;80.63;;;;;;;17.15;100.00;101833.58;2022737;71;24104;-73
2022/06/10 01:16:34;;;;;;;87.53;80.83;;;;;;;17.14;100.00;101836.69;2013143;70;24632;-73
2022/06/10 01:19:08;;;;;;;90.97;83.90;;;;;;;17.20;100.00;101833.47;2019232;70;26196;-73
2022/06/10 01:22:01;;;;;;;87.97;81.57;;;;;;;17.24;100.00;101833.13;2012323;70;24198;-73
2022/06/10 01:24:44;;;;;;;88.20;81.70;;;;;;;17.16;100.00;101833.82;1930531;74;26210;-73
2022/06/10 01:31:15;;;;;;;92.03;85.43;;;;;;;17.21;100.00;101822.52;2045115;69;30578;-73
2022/06/10 01:37:08;;;;;;;94.20;87.57;;;;;;;17.19;100.00;101822.57;2052813;69;30618;-72
2022/06/10 01:39:45;;;;;;;94.57;87.80;;;;;;;17.16;100.00;101827.37;2012264;70;26291;-72
2022/06/10 01:42:18;;;;;;;88.00;81.40;;;;;;;17.26;100.00;101830.86;1932743;73;26231;-72
2022/06/10 01:44:54;;;;;;;88.30;81.90;;;;;;;17.23;100.00;101835.69;1937280;73;24585;-72
2022/06/10 01:50:38;;;;;;;86.43;80.10;;;;;;;17.25;100.00;101821.33;2045618;69;30590;-73
2022/06/10 01:53:12;;;;;;;90.93;84.13;;;;;;;17.21;100.00;101822.52;2009201;70;26645;-73
2022/06/10 01:55:46;;;;;;;85.47;79.03;;;;;;;17.24;100.00;101824.70;1937085;73;24312;-73
2022/06/10 01:58:19;;;;;;;86.03;79.60;;;;;;;17.23;100.00;101823.63;2016056;70;24594;-73
2022/06/10 02:00:53;;;;;;;90.80;83.90;;;;;;;17.26;100.00;101828.05;2019431;70;24680;-73
2022/06/10 02:03:28;;;;;;;96.47;89.80;;;;;;;17.27;100.00;101824.11;2019085;70;26662;-72
2022/06/10 02:06:01;;;;;;;93.87;87.37;;;;;;;17.24;100.00;101825.30;2009103;70;26290;-73
2022/06/10 02:08:37;;;;;;;92.93;86.43;;;;;;;17.17;100.00;101825.67;1898777;74;24167;-73
2022/06/10 02:11:10;;;;;;;88.17;81.67;;;;;;;17.19;100.00;101825.38;1989343;72;24134;-73
2022/06/10 02:13:44;;;;;;;96.80;90.10;;;;;;;17.22;100.00;101830.37;1937513;74;24145;-73
2022/06/10 02:16:17;;;;;;;94.70;87.93;;;;;;;17.24;100.00;101828.11;1937333;73;26210;-73
2022/06/10 02:18:50;;;;;;;94.20;87.40;;;;;;;17.26;100.00;101830.02;1934466;73;26739;-73
2022/06/10 02:21:24;;;;;;;93.07;86.33;;;;;;;17.23;100.00;101827.27;1930335;74;24231;-72
2022/06/10 02:23:58;;;;;;;89.93;83.50;;;;;;;17.21;100.00;101831.50;1934895;73;26273;-73
2022/06/10 02:26:32;;;;;;;88.80;82.33;;;;;;;17.23;100.00;101831.48;1979376;72;24219;-73
2022/06/10 02:29:06;;;;;;;96.97;90.33;;;;;;;17.21;100.00;101833.75;1935190;73;24173;-73
2022/06/10 02:31:40;;;;;;;95.50;89.07;;;;;;;17.25;100.00;101833.39;1974664;72;24228;-73
2022/06/10 02:34:10;;;;;;;94.80;88.10;;;;;;;17.24;100.00;101835.12;1990994;72;24166;-73
2022/06/10 02:36:44;;;;;;;92.53;85.80;;;;;;;17.23;100.00;101839.06;1939179;73;24179;-73
2022/06/10 02:39:18;;;;;;;93.73;87.03;;;;;;;17.26;100.00;101845.47;1939109;73;24198;-73
2022/06/10 02:41:53;;;;;;;97.60;90.50;;;;;;;17.24;100.00;101845.76;1982636;72;26828;-74
2022/06/10 02:44:26;;;;;;;92.77;86.17;;;;;;;17.22;100.00;101850.03;1979113;72;24151;-73
2022/06/10 02:47:02;;;;;;;95.07;88.37;;;;;;;17.16;100.00;101854.88;1979085;72;26215;-73
2022/06/10 02:49:40;;;;;;;99.10;92.00;;;;;;;17.23;100.00;101853.95;1975785;72;24158;-73
2022/06/10 02:52:12;;;;;;;98.53;91.50;;;;;;;17.23;100.00;101853.95;1937607;74;24579;-73
2022/06/10 02:54:43;;;;;;;104.77;96.97;;;;;;;17.19;100.00;101862.72;1931804;74;24124;-73
2022/06/10 02:57:16;;;;;;;98.07;90.97;;;;;;;17.13;100.00;101862.52;1937512;74;26171;-73
2022/06/10 03:02:42;;;;;;;100.03;92.90;;;;;;;17.20;100.00;101863.55;1936994;74;26665;-73
2022/06/10 03:05:24;;;;;;;97.00;89.90;;;;;;;17.14;100.00;101868.97;1936728;74;26202;-73
2022/06/10 03:08:07;;;;;;;99.40;92.47;;;;;;;17.16;100.00;101863.30;1936959;74;26765;-73
2022/06/10 03:10:41;;;;;;;97.63;90.67;;;;;;;17.13;100.00;101867.30;1936879;74;26325;-73
2022/06/10 03:13:25;;;;;;;105.77;98.13;;;;;;;17.17;100.00;101873.97;1936028;74;26305;-73
2022/06/10 03:16:05;;;;;;;102.17;95.27;;;;;;;17.21;100.00;101875.03;1936556;74;24202;-73
2022/06/10 03:18:41;;;;;;;102.23;94.93;;;;;;;17.15;100.00;101875.70;1936566;74;24559;-73
2022/06/10 03:21:17;;;;;;;104.40;97.00;;;;;;;17.10;100.00;101874.94;1936162;74;26683;-73
2022/06/10 03:23:52;;;;;;;105.10;97.67;;;;;;;17.07;100.00;101876.36;1936830;74;26676;-72
2022/06/10 03:26:26;;;;;;;104.47;97.10;;;;;;;17.14;100.00;101874.59;1936671;74;26761;-72
2022/06/10 03:29:01;;;;;;;99.80;92.53;;;;;;;17.06;100.00;101873.31;1936923;74;26648;-72
2022/06/10 03:31:35;;;;;;;98.37;90.83;;;;;;;17.04;100.00;101876.97;1936998;74;24174;-73
2022/06/10 03:34:08;;;;;;;98.47;91.37;;;;;;;17.08;100.00;101877.20;1931221;74;24316;-73
2022/06/10 03:36:40;;;;;;;97.93;90.80;;;;;;;17.02;100.00;101882.64;1936817;74;24128;-73
2022/06/10 03:39:10;;;;;;;95.33;88.23;;;;;;;17.01;100.00;101881.80;1936885;74;24624;-73
2022/06/10 03:41:43;;;;;;;104.30;96.77;;;;;;;16.99;100.00;101879.85;1931270;74;24182;-73
2022/06/10 03:44:17;;;;;;;95.83;88.80;;;;;;;16.96;100.00;101883.84;1935557;74;24148;-73
2022/06/10 03:46:50;;;;;;;99.23;92.07;;;;;;;16.94;100.00;101882.76;1931135;74;24707;-72
2022/06/10 03:49:24;;;;;;;99.23;91.67;;;;;;;16.94;100.00;101884.73;1936781;73;24173;-72
2022/06/10 03:51:54;;;;;;;96.20;89.07;;;;;;;16.96;100.00;101881.88;1937034;74;24625;-74
2022/06/10 03:54:24;;;;;;;99.40;92.13;;;;;;;16.96;100.00;101881.88;1931019;74;24246;-73
2022/06/10 03:56:55;;;;;;;96.30;89.20;;;;;;;16.90;100.00;101876.65;1936904;74;24183;-73
2022/06/10 03:59:25;;;;;;;98.60;91.30;;;;;;;16.86;100.00;101880.60;1931080;74;26175;-74
2022/06/10 04:05:01;;;;;;;96.33;88.80;;;;;;;16.89;100.00;101870.77;2060890;69;30516;-75
2022/06/10 04:07:32;;;;;;;102.83;95.07;;;;;;;16.90;100.00;101884.47;1936197;73;24723;-75
2022/06/10 04:10:02;;;;;;;101.97;94.77;;;;;;;16.84;100.00;101885.70;1985431;72;26216;-75
2022/06/10 04:12:32;;;;;;;108.37;100.43;;;;;;;16.85;100.00;101883.17;1934129;73;24222;-75
2022/06/10 04:15:03;;;;;;;104.93;97.20;;;;;;;16.80;100.00;101880.43;1979535;72;24142;-75
2022/06/10 04:17:33;;;;;;;101.30;93.70;;;;;;;16.80;100.00;101880.43;1935859;73;26659;-75
2022/06/10 04:20:06;;;;;;;97.70;90.20;;;;;;;16.74;100.00;101887.23;1901141;74;24142;-75
2022/06/10 04:22:37;;;;;;;98.60;90.97;;;;;;;16.70;100.00;101891.78;1893771;74;26245;-75
2022/06/10 04:25:09;;;;;;;96.30;88.70;;;;;;;16.68;100.00;101892.66;1900802;74;24298;-75
2022/06/10 04:27:39;;;;;;;99.30;91.93;;;;;;;16.68;100.00;101892.66;1909353;74;26252;-74
2022/06/10 04:33:20;;;;;;;98.40;90.83;;;;;;;16.74;100.00;101895.09;2060565;69;32626;-74
2022/06/10 04:35:51;;;;;;;97.43;89.80;;;;;;;16.71;100.00;101901.31;1938505;73;26305;-74
2022/06/10 04:38:24;;;;;;;95.03;87.63;;;;;;;16.76;100.00;101909.66;1930080;73;26732;-75
2022/06/10 04:40:54;;;;;;;97.00;89.57;;;;;;;16.76;100.00;101909.66;2017505;70;26264;-75
2022/06/10 04:43:24;;;;;;;96.33;88.90;;;;;;;16.73;100.00;101902.39;2016438;71;26325;-75
2022/06/10 04:45:57;;;;;;;102.73;94.87;;;;;;;16.73;100.00;101902.39;2025883;70;26255;-75
2022/06/10 04:48:27;;;;;;;102.50;94.87;;;;;;;16.65;100.00;101908.11;2010104;70;24134;-74
2022/06/10 04:50:58;;;;;;;97.40;90.10;;;;;;;16.56;100.00;101911.87;2012460;70;26798;-74
2022/06/10 04:53:28;;;;;;;100.83;92.70;;;;;;;16.56;100.00;101911.87;2006788;70;24197;-74
2022/06/10 04:55:58;;;;;;;93.57;86.20;;;;;;;16.61;100.00;101914.05;2019169;70;26759;-75
2022/06/10 04:58:30;;;;;;;98.87;91.13;;;;;;;16.65;100.00;101915.69;2009264;70;24650;-74
2022/06/10 05:01:00;;;;;;;98.17;90.57;;;;;;;16.65;100.00;101915.69;2026656;70;24153;-75
2022/06/10 05:03:30;;;;;;;98.10;90.50;;;;;;;16.70;100.00;101906.65;2015371;70;24153;-74
2022/06/10 05:06:01;;;;;;;100.17;92.20;;;;;;;16.79;100.00;101908.22;2010571;70;24193;-75
2022/06/10 05:08:31;;;;;;;97.97;90.63;;;;;;;16.79;100.00;101908.22;1972589;71;24146;-75
2022/06/10 05:11:02;;;;;;;97.70;89.80;;;;;;;16.62;100.00;101905.08;1974438;72;26302;-74
2022/06/10 05:13:32;;;;;;;99.03;91.20;;;;;;;16.62;100.00;101905.08;1981178;72;24278;-74
2022/06/10 05:16:03;;;;;;;93.93;85.97;;;;;;;16.63;100.00;101910.40;1988365;72;26696;-75
2022/06/10 05:18:35;;;;;;;97.70;90.00;;;;;;;16.69;100.00;101903.56;1883109;75;24169;-74
2022/06/10 05:21:05;;;;;;;102.90;94.87;;;;;;;16.60;100.00;101904.55;1936439;73;26265;-75
2022/06/10 05:23:36;;;;;;;100.73;93.07;;;;;;;16.59;100.00;101902.31;1942375;73;26194;-75
2022/06/10 05:26:06;;;;;;;99.90;92.43;;;;;;;16.63;100.00;101906.19;1937290;73;26226;-75
2022/06/10 05:28:36;;;;;;;100.80;92.53;;;;;;;16.52;100.00;101895.34;1937570;74;24206;-74
2022/06/10 05:31:06;;;;;;;99.67;92.00;;;;;;;16.52;100.00;101898.98;1937547;73;26275;-75
2022/06/10 05:36:24;;;;;;;95.33;87.13;;;;;;;16.64;100.00;101908.43;1937741;74;24651;-74
2022/06/10 05:38:55;;;;;;;102.07;93.67;;;;;;;16.55;100.00;101898.41;1937597;74;26315;-74
2022/06/10 05:44:13;;;;;;;98.20;90.20;;;;;;;16.45;100.00;101911.70;1936980;74;24174;-75
2022/06/10 05:46:44;;;;;;;90.03;82.60;;;;;;;16.55;100.00;101911.59;1936933;74;26215;-75
2022/06/10 05:49:15;;;;;;;91.87;84.13;;;;;;;16.65;100.00;101908.67;1937064;74;26686;-74
2022/06/10 05:51:46;;;;;;;88.93;81.37;;;;;;;16.67;100.00;101903.61;1937032;74;24182;-74
2022/06/10 05:54:17;;;;;;;93.13;85.27;;;;;;;16.76;100.00;101911.06;1936933;74;24259;-75
2022/06/10 05:56:47;;;;;;;83.33;76.00;;;;;;;16.75;100.00;101900.97;1936896;74;26214;-74
2022/06/10 05:59:19;;;;;;;86.93;79.60;;;;;;;16.76;100.00;101899.84;1936999;74;26289;-74
2022/06/10 06:01:50;;;;;;;95.43;87.43;;;;;;;16.81;100.00;101903.16;1937008;74;24243;-74
2022/06/10 06:04:20;;;;;;;93.07;85.40;;;;;;;16.86;100.00;101897.44;1936991;74;24567;-75
2022/06/10 06:06:50;;;;;;;92.93;85.37;;;;;;;16.85;100.00;101895.80;1936950;74;24156;-75
2022/06/10 06:09:22;;;;;;;92.27;84.50;;;;;;;16.91;100.00;101895.13;1936972;74;26755;-75
2022/06/10 06:11:56;;;;;;;93.00;85.17;;;;;;;16.96;100.00;101900.68;1936896;74;24133;-76
2022/06/10 06:14:27;;;;;;;96.43;89.20;;;;;;;16.92;100.00;101902.42;1937079;74;26257;-76
2022/06/10 06:20:07;;;;;;;88.33;81.03;;;;;;;17.09;100.00;101896.55;2052785;69;32622;-74
2022/06/10 06:22:37;;;;;;;89.00;81.60;;;;;;;17.04;100.00;101887.37;1938286;73;24652;-74
2022/06/10 06:25:10;;;;;;;82.87;75.90;;;;;;;17.20;100.00;101892.44;1937662;73;24242;-75
2022/06/10 06:27:43;;;;;;;84.83;77.57;;;;;;;17.19;100.00;101892.20;1964912;72;26642;-75
2022/06/10 06:30:19;;;;;;;86.77;79.97;;;;;;;17.23;100.00;101897.47;1919154;73;24158;-75
2022/06/10 06:32:49;;;;;;;86.67;79.63;;;;;;;17.28;100.00;101893.75;2018292;70;24169;-75
2022/06/10 06:35:21;;;;;;;85.80;78.70;;;;;;;17.23;100.00;101900.28;2020607;70;24181;-74
2022/06/10 06:37:52;;;;;;;81.77;74.70;;;;;;;17.27;100.00;101895.72;2011420;70;24665;-75
2022/06/10 06:40:23;;;;;;;77.37;70.60;;;;;;;17.39;100.00;101895.24;2015928;70;24147;-74
2022/06/10 06:42:53;;;;;;;85.00;77.90;;;;;;;17.44;100.00;101905.00;2016664;70;24231;-76
2022/06/10 06:45:24;;;;;;;80.30;73.47;;;;;;;17.49;100.00;101909.70;2008111;70;24249;-75
2022/06/10 06:47:54;;;;;;;82.57;75.43;;;;;;;17.57;100.00;101916.02;2015583;70;24158;-75
2022/06/10 06:50:29;;;;;;;84.53;77.37;;;;;;;17.60;100.00;101924.70;2015578;70;24632;-76
2022/06/10 06:53:00;;;;;;;79.13;72.23;;;;;;;17.69;100.00;101923.43;2020169;70;24252;-75
2022/06/10 06:55:30;;;;;;;80.77;73.90;;;;;;;17.78;100.00;101920.19;2012500;70;26602;-76
2022/06/10 06:58:00;;;;;;;78.00;71.60;;;;;;;17.87;100.00;101924.53;2014728;70;24230;-75
2022/06/10 07:00:31;;;;;;;74.53;68.47;;;;;;;17.84;100.00;101916.12;2017119;70;24227;-75
2022/06/10 07:03:02;;;;;;;71.50;65.60;;;;;;;17.87;100.00;101907.09;2012806;70;24207;-76
2022/06/10 07:05:32;;;;;;;75.03;68.77;;;;;;;17.93;100.00;101914.84;2015447;70;24552;-77
2022/06/10 07:08:03;;;;;;;77.83;71.50;;;;;;;17.90;100.00;101909.85;1984054;71;24586;-76
2022/06/10 07:10:33;;;;;;;75.73;69.50;;;;;;;18.03;100.00;101920.30;1980868;72;24289;-76
2022/06/10 07:13:03;;;;;;;74.37;68.77;;;;;;;18.01;100.00;101914.97;1987010;72;24145;-76
2022/06/10 07:15:37;;;;;;;74.70;68.20;;;;;;;18.12;100.00;101915.63;1982994;72;24106;-76
2022/06/10 07:18:06;;;;;;;75.07;68.87;;;;;;;18.18;100.00;101925.05;1982161;70;26374;-74
2022/06/10 07:20:38;;;;;;;70.47;65.03;;;;;;;18.32;100.00;101922.83;1980361;72;24107;-77
2022/06/10 07:23:08;;;;;;;71.30;65.10;;;;;;;18.29;100.00;101926.27;1980432;72;24233;-76
2022/06/10 07:25:39;;;;;;;76.90;70.77;;;;;;;18.23;100.00;101923.31;1980146;72;24635;-81
2022/06/10 07:28:11;;;;;;;69.97;64.50;;;;;;;18.25;100.00;101920.44;1980244;72;24158;-79
2022/06/10 07:30:43;;;;;;;73.40;67.23;;;;;;;18.33;100.00;101921.69;1979602;72;24617;-75
2022/06/10 07:33:13;;;;;;;65.43;60.30;;;;;;;18.57;100.00;101922.34;1979486;72;24133;-77
2022/06/10 07:35:44;;;;;;;64.13;59.47;;;;;;;18.92;100.00;101916.52;1979530;72;24644;-79
2022/06/10 07:38:14;;;;;;;64.67;59.87;;;;;;;19.17;100.00;101912.32;1979512;72;24195;-78
2022/06/10 07:43:35;;;;;;;58.60;54.47;;;;;;;19.40;100.00;101906.95;1979496;72;24590;-76
2022/06/10 07:46:08;;;;;;;55.47;51.60;;;;;;;19.38;100.00;101915.72;1979535;72;26726;-76
2022/06/10 07:48:38;;;;;;;57.30;52.77;;;;;;;19.22;100.00;101917.23;1979412;72;26707;-75
2022/06/10 07:51:08;;;;;;;61.90;57.37;;;;;;;18.92;100.00;101914.55;1979366;72;24690;-75
2022/06/10 07:53:41;;;;;;;60.70;55.80;;;;;;;18.94;100.00;101919.30;1979494;72;24130;-75
2022/06/10 07:56:13;;;;;;;60.13;55.53;;;;;;;19.13;100.00;101926.18;1979432;72;24174;-75
2022/06/10 07:58:47;;;;;;;60.63;55.67;;;;;;;19.19;100.00;101928.31;1979361;72;24134;-75
2022/06/10 08:01:18;;;;;;;61.73;57.23;;;;;;;19.03;100.00;101928.67;1979536;72;24212;-76
2022/06/10 08:03:50;;;;;;;60.43;55.73;;;;;;;18.91;100.00;101922.73;1979534;72;24192;-76
2022/06/10 08:06:22;;;;;;;61.00;56.47;;;;;;;19.07;100.00;101926.89;1979529;72;24111;-75
2022/06/10 08:08:57;;;;;;;59.33;54.53;;;;;;;19.46;100.00;101926.28;1979443;72;24107;-77
2022/06/10 08:11:28;;;;;;;50.93;47.40;;;;;;;19.85;100.00;101912.06;1979424;72;24534;-75
2022/06/10 08:13:58;;;;;;;54.43;50.63;;;;;;;20.15;100.00;101907.58;1979582;72;24128;-76
2022/06/10 08:16:29;;;;;;;54.07;50.13;;;;;;;20.39;100.00;101899.00;1979500;72;24139;-76
2022/06/10 08:18:59;;;;;;;53.97;50.17;;;;;;;20.56;100.00;101912.92;1979289;71;24807;-76
2022/06/10 08:24:17;;;;;;;49.50;46.10;;;;;;;20.56;100.00;101904.45;1979554;72;24135;-76
2022/06/10 08:26:47;;;;;;;43.40;40.43;;;;;;;20.55;100.00;101896.56;1979481;72;24123;-76
2022/06/10 08:32:25;;;;;;;39.30;36.00;;;;;;;20.58;100.00;101890.86;2049208;69;30615;-78
2022/06/10 08:34:56;;;;;;;43.03;39.07;;;;;;;20.40;100.00;101898.43;2022577;70;24552;-77
2022/06/10 08:37:26;;;;;;;44.73;41.13;;;;;;;20.42;100.00;101903.98;2018723;70;24247;-77
2022/06/10 08:39:56;;;;;;;43.87;40.50;;;;;;;20.41;100.00;101900.91;2016601;71;24126;-78
2022/06/10 08:42:35;;;;;;;43.77;40.30;;;;;;;20.40;100.00;101904.08;2013344;70;24150;-78
2022/06/10 08:45:14;;;;;;;44.70;41.13;;;;;;;20.35;100.00;101905.63;2011025;70;24167;-77
2022/06/10 08:47:52;;;;;;;45.07;40.87;;;;;;;20.52;100.00;101897.22;2034175;70;24100;-78
2022/06/10 08:50:43;;;;;;;41.80;38.33;;;;;;;20.63;100.00;101886.45;2023422;70;24672;-77
2022/06/10 08:53:21;;;;;;;39.90;36.38;;;;;;;20.53;100.00;101900.88;2013750;70;24154;-77
2022/06/10 08:55:54;;;;;;;40.63;37.43;;;;;;;20.58;100.00;101894.48;2008129;70;24698;-76
2022/06/10 08:58:28;;;;;;;40.17;37.43;;;;;;;20.56;100.00;101890.34;2017920;70;26690;-76
2022/06/10 09:04:12;;;;;;;30.47;28.17;;;;;;;21.03;100.00;101882.96;2052999;69;31026;-75
2022/06/10 09:06:45;;;;;;;31.62;28.87;;;;;;;21.30;100.00;101882.69;2003489;70;24301;-75
2022/06/10 09:12:26;;;;;;;25.93;23.90;;;;;;;21.45;100.00;101879.91;2060927;69;31054;-76
2022/06/10 09:15:00;;;;;;;25.00;23.20;;;;;;;21.39;100.00;101880.69;2026047;71;24513;-76
2022/06/10 09:20:42;;;;;;;26.57;24.23;;;;;;;21.08;100.00;101889.87;2060878;69;30614;-77
2022/06/10 09:23:17;;;;;;;26.07;24.07;;;;;;;21.17;100.00;101892.16;2023952;71;24109;-77
2022/06/10 09:25:50;;;;;;;30.62;28.12;;;;;;;21.23;100.00;101887.41;2016529;70;24247;-77
2022/06/10 09:28:20;;;;;;;28.80;26.57;;;;;;;21.16;100.00;101887.66;2008255;70;24141;-77
2022/06/10 09:30:54;;;;;;;24.37;22.40;;;;;;;21.57;100.00;101880.90;2017684;70;24218;-75
2022/06/10 09:36:35;;;;;;;21.45;19.67;;;;;;;21.54;100.00;101866.61;2048402;69;30683;-76
2022/06/10 09:42:19;;;;;;;17.97;16.30;;;;;;;21.61;100.00;101874.82;2037279;69;30528;-75
2022/06/10 09:44:53;;;;;;;17.62;16.00;;;;;;;21.71;100.00;101875.89;2012724;70;24209;-75
2022/06/10 09:47:28;;;;;;;17.70;16.20;;;;;;;21.76;100.00;101873.47;2009456;70;24612;-75
2022/06/10 09:53:36;;;;;;;16.50;14.85;;;;;;;21.37;100.00;101868.88;2060906;69;30641;-75
2022/06/10 09:59:38;;;;;;;15.88;14.18;;;;;;;21.71;100.00;101879.30;2048865;69;30577;-76
2022/06/10 10:02:20;;;;;;;15.45;14.03;;;;;;;21.64;100.00;101884.06;1939212;73;24116;-76
2022/06/10 10:05:06;;;;;;;14.73;13.32;;;;;;;21.58;100.00;101876.91;1936719;73;24226;-77
2022/06/10 10:10:51;;;;;;;16.07;14.65;;;;;;;21.28;100.00;101872.28;2053262;69;30520;-77
2022/06/10 10:14:03;;;;;;;16.57;14.70;;;;;;;21.41;100.00;101875.52;1947410;73;24212;-77
2022/06/10 10:16:41;;;;;;;15.63;14.07;;;;;;;21.65;100.00;101872.18;1933209;73;24231;-78
2022/06/10 10:19:43;;;;;;;15.10;13.70;;;;;;;21.74;100.00;101865.31;1968568;72;24689;-77
2022/06/10 10:22:48;;;;;;;13.83;12.60;;;;;;;21.60;100.00;101865.28;1929959;73;24249;-77
2022/06/10 10:25:22;;;;;;;14.37;13.17;;;;;;;21.48;100.00;101860.89;1933575;73;24161;-76
2022/06/10 10:27:55;;;;;;;14.33;12.88;;;;;;;21.73;100.00;101871.33;2014969;70;24254;-76
2022/06/10 10:30:29;;;;;;;14.58;12.82;;;;;;;21.78;100.00;101864.89;1999116;70;24130;-75
2022/06/10 10:33:02;;;;;;;14.00;12.90;;;;;;;21.87;100.00;101868.27;2017525;70;24609;-77
2022/06/10 10:35:36;;;;;;;14.18;12.75;;;;;;;21.99;100.00;101862.80;1934549;73;24168;-75
2022/06/10 10:38:09;;;;;;;14.30;12.93;;;;;;;22.13;100.00;101867.64;1965364;72;24128;-75
2022/06/10 10:40:42;;;;;;;14.75;13.18;;;;;;;22.34;100.00;101864.30;1933985;73;24254;-76
2022/06/10 10:43:17;;;;;;;14.25;12.68;;;;;;;22.51;100.00;101872.71;1936228;73;24645;-75
2022/06/10 10:45:58;;;;;;;14.05;12.68;;;;;;;22.43;100.00;101858.59;1952037;73;24197;-75
2022/06/10 10:48:31;;;;;;;17.35;14.05;;;;;;;22.44;100.00;101856.02;1967084;72;24147;-76
2022/06/10 10:51:05;;;;;;;19.80;13.70;;;;;;;22.07;100.00;101853.45;1928778;74;24227;-75
2022/06/10 10:53:39;;;;;;;15.15;13.53;;;;;;;22.04;100.00;101864.84;2017047;70;24169;-75
2022/06/10 10:56:13;;;;;;;18.35;13.22;;;;;;;21.99;100.00;101862.19;2016584;70;24324;-76
2022/06/10 10:58:49;;;;;;;14.68;12.73;;;;;;;21.92;100.00;101862.44;2016485;71;24237;-76
2022/06/10 11:01:46;;;;;;;17.92;13.48;;;;;;;22.04;100.00;101862.59;2019189;70;24518;-74
2022/06/10 11:04:22;;;;;;;14.93;13.32;;;;;;;22.08;100.00;101863.58;2015901;70;24211;-75
2022/06/10 11:10:11;;;;;;;14.70;13.28;;;;;;;22.41;100.00;101839.14;2034202;69;30638;-74
2022/06/10 11:12:44;;;;;;;13.32;12.03;;;;;;;22.33;100.00;101846.27;2014387;70;24156;-73
2022/06/10 11:18:23;;;;;;;17.90;16.32;;;;;;;22.21;100.00;101840.72;2045084;69;30601;-75
2022/06/10 11:20:56;;;;;;;14.15;12.60;;;;;;;22.64;100.00;101837.66;1938353;73;24249;-75
2022/06/10 11:23:28;;;;;;;13.72;12.53;;;;;;;22.67;100.00;101831.91;1934213;73;24228;-75
2022/06/10 11:26:08;;;;;;;13.83;12.33;;;;;;;22.50;100.00;101845.59;1968134;72;24154;-75
2022/06/10 11:28:41;;;;;;;13.28;11.93;;;;;;;22.42;100.00;101844.22;1937531;73;24189;-75
2022/06/10 11:31:22;;;;;;;13.25;11.78;;;;;;;22.55;100.00;101830.37;1966086;72;24139;-75
2022/06/10 11:33:55;;;;;;;12.55;11.48;;;;;;;22.44;100.00;101847.52;1937725;73;24158;-75
2022/06/10 11:39:34;;;;;;;13.22;11.97;;;;;;;22.19;100.00;101846.48;2034608;69;30623;-73
2022/06/10 11:42:09;;;;;;;12.53;11.48;;;;;;;22.20;100.00;101840.50;1935218;73;24249;-74
2022/06/10 11:44:45;;;;;;;13.70;11.93;;;;;;;22.28;100.00;101834.55;1929334;73;24678;-74
2022/06/10 11:47:19;;;;;;;12.93;11.73;;;;;;;22.06;100.00;101844.13;1965066;72;24139;-74
2022/06/10 11:49:53;;;;;;;13.57;12.23;;;;;;;22.16;100.00;101836.66;1915144;72;24160;-74
2022/06/10 11:52:27;;;;;;;12.60;11.30;;;;;;;22.32;100.00;101839.77;2012030;70;24237;-74
2022/06/10 11:55:03;;;;;;;13.78;12.63;;;;;;;22.27;100.00;101839.12;2016656;70;24681;-74
2022/06/10 12:00:31;;;;;;;13.18;11.85;;;;;;;22.53;100.00;101829.31;2015567;70;24179;-74
2022/06/10 12:03:10;;;;;;;13.60;12.00;;;;;;;22.38;100.00;101836.17;2015812;70;24639;-75
2022/06/10 12:05:47;;;;;;;13.15;11.95;;;;;;;22.33;100.00;101843.44;2008096;70;24173;-74
2022/06/10 12:08:25;;;;;;;12.75;11.45;;;;;;;22.20;100.00;101836.83;1972673;71;24598;-73
2022/06/10 12:10:59;;;;;;;13.68;11.60;;;;;;;22.44;100.00;101827.13;1981990;72;24162;-73
2022/06/10 12:16:39;;;;;;;15.35;11.83;;;;;;;22.30;100.00;101830.77;2052669;69;30540;-74
2022/06/10 12:19:14;;;;;;;14.23;12.35;;;;;;;22.22;100.00;101840.97;1938843;73;24156;-74
2022/06/10 12:21:45;;;;;;;14.65;12.88;;;;;;;22.52;100.00;101836.73;1934769;73;24631;-74
2022/06/10 12:24:19;;;;;;;13.45;11.22;;;;;;;22.49;100.00;101825.52;1941737;74;24561;-75
2022/06/10 12:26:52;;;;;;;17.30;13.30;;;;;;;22.59;100.00;101831.38;1937807;73;24156;-75
2022/06/10 12:32:36;;;;;;;13.18;11.93;;;;;;;22.41;100.00;101826.40;2051234;69;30489;-76
2022/06/10 12:35:11;;;;;;;13.43;12.05;;;;;;;22.42;100.00;101834.31;1944537;72;24199;-72
2022/06/10 12:37:44;;;;;;;14.33;12.58;;;;;;;22.48;100.00;101822.44;2024399;70;24680;-79
2022/06/10 12:40:20;;;;;;;14.90;11.60;;;;;;;22.41;100.00;101817.91;1980242;72;24138;-80
2022/06/10 12:46:01;;;;;;;14.83;12.45;;;;;;;22.53;100.00;101814.33;2060773;69;30525;-77
2022/06/10 12:48:34;;;;;;;12.70;11.53;;;;;;;22.50;100.00;101819.27;1932679;73;24246;-77
2022/06/10 12:51:08;;;;;;;15.65;12.35;;;;;;;22.55;100.00;101820.46;1943807;73;24588;-78
2022/06/10 12:53:49;;;;;;;14.85;12.33;;;;;;;22.57;100.00;101818.12;1963732;72;24221;-80
2022/06/10 12:56:24;;;;;;;14.90;12.35;;;;;;;22.54;100.00;101814.58;1937606;73;24152;-77
2022/06/10 12:59:18;;;;;;;12.88;11.60;;;;;;;22.56;100.00;101810.22;1932268;73;24153;-78
2022/06/10 13:01:47;;;;;;;15.18;11.90;;;;;;;22.61;100.00;101807.19;1940863;73;24152;-82
2022/06/10 13:04:37;;;;;;;13.58;12.20;;;;;;;22.87;100.00;101814.12;1949057;73;24286;-78